sensor_id;sensor_type;location;lat;lon;timestamp;P1;durP1;ratioP1;P2;durP2;ratioP2
422;SDS011;198;48.752;9.180;2023-06-10T00:01:35;6.90;;;4.97;;
422;SDS011;198;48.752;9.180;2023-06-10T00:04:01;6.83;;;4.50;;
422;SDS011;198;48.752;9.180;2023-06-10T00:06:27;9.53;;;5.83;;
422;SDS011;198;48.752;9.180;2023-06-10T00:08:53;7.40;;;5.00;;
422;SDS011;198;48.752;9.180;2023-06-10T00:11:19;8.30;;;4.90;;
422;SDS011;198;48.752;9.180;2023-06-10T00:13:46;8.50;;;4.90;;
422;SDS011;198;48.752;9.180;2023-06-10T00:16:12;8.90;;;5.27;;
422;SDS011;198;48.752;9.180;2023-06-10T00:18:37;6.60;;;4.60;;
422;SDS011;198;48.752;9.180;2023-06-10T00:21:03;8.30;;;5.00;;
422;SDS011;198;48.752;9.180;2023-06-10T00:23:30;9.93;;;4.73;;
422;SDS011;198;48.752;9.180;2023-06-10T00:25:57;6.50;;;4.27;;
422;SDS011;198;48.752;9.180;2023-06-10T00:28:24;5.60;;;4.10;;
422;SDS011;198;48.752;9.180;2023-06-10T00:30:50;7.17;;;4.13;;
422;SDS011;198;48.752;9.180;2023-06-10T00:33:15;14.80;;;5.20;;
422;SDS011;198;48.752;9.180;2023-06-10T00:35:41;8.20;;;5.30;;
422;SDS011;198;48.752;9.180;2023-06-10T00:38:06;8.83;;;4.87;;
422;SDS011;198;48.752;9.180;2023-06-10T00:40:33;6.43;;;4.60;;
422;SDS011;198;48.752;9.180;2023-06-10T00:43:04;10.83;;;5.27;;
422;SDS011;198;48.752;9.180;2023-06-10T00:45:29;9.67;;;5.67;;
422;SDS011;198;48.752;9.180;2023-06-10T00:47:55;8.30;;;5.10;;
422;SDS011;198;48.752;9.180;2023-06-10T00:50:21;7.83;;;5.00;;
422;SDS011;198;48.752;9.180;2023-06-10T00:52:46;7.10;;;4.40;;
422;SDS011;198;48.752;9.180;2023-06-10T00:55:13;6.50;;;4.30;;
422;SDS011;198;48.752;9.180;2023-06-10T00:57:41;8.73;;;4.63;;
422;SDS011;198;48.752;9.180;2023-06-10T01:00:09;7.40;;;4.30;;
422;SDS011;198;48.752;9.180;2023-06-10T01:02:36;8.47;;;5.70;;
422;SDS011;198;48.752;9.180;2023-06-10T01:05:01;5.60;;;4.33;;
422;SDS011;198;48.752;9.180;2023-06-10T01:07:28;6.17;;;4.37;;
422;SDS011;198;48.752;9.180;2023-06-10T01:10:11;7.67;;;5.43;;
422;SDS011;198;48.752;9.180;2023-06-10T01:15:31;6.20;;;4.63;;
422;SDS011;198;48.752;9.180;2023-06-10T01:18:01;8.90;;;5.27;;
422;SDS011;198;48.752;9.180;2023-06-10T01:20:29;7.77;;;4.77;;
422;SDS011;198;48.752;9.180;2023-06-10T01:22:57;8.80;;;5.13;;
422;SDS011;198;48.752;9.180;2023-06-10T01:25:28;7.97;;;5.03;;
422;SDS011;198;48.752;9.180;2023-06-10T01:27:55;5.20;;;4.10;;
422;SDS011;198;48.752;9.180;2023-06-10T01:30:39;6.40;;;4.30;;
422;SDS011;198;48.752;9.180;2023-06-10T01:33:16;6.93;;;4.50;;
422;SDS011;198;48.752;9.180;2023-06-10T01:35:46;7.20;;;3.70;;
422;SDS011;198;48.752;9.180;2023-06-10T01:38:12;5.73;;;4.17;;
422;SDS011;198;48.752;9.180;2023-06-10T01:40:40;5.63;;;4.20;;
422;SDS011;198;48.752;9.180;2023-06-10T01:43:07;6.43;;;4.90;;
422;SDS011;198;48.752;9.180;2023-06-10T01:45:32;5.70;;;3.63;;
422;SDS011;198;48.752;9.180;2023-06-10T01:47:58;5.97;;;4.17;;
422;SDS011;198;48.752;9.180;2023-06-10T01:50:23;6.50;;;4.60;;
422;SDS011;198;48.752;9.180;2023-06-10T01:52:49;7.77;;;5.00;;
422;SDS011;198;48.752;9.180;2023-06-10T01:55:14;5.77;;;4.07;;
422;SDS011;198;48.752;9.180;2023-06-10T01:57:40;5.60;;;4.67;;
422;SDS011;198;48.752;9.180;2023-06-10T02:00:06;6.80;;;3.30;;
422;SDS011;198;48.752;9.180;2023-06-10T02:02:32;6.43;;;4.10;;
422;SDS011;198;48.752;9.180;2023-06-10T02:04:58;4.00;;;3.63;;
422;SDS011;198;48.752;9.180;2023-06-10T02:07:23;6.30;;;4.27;;
422;SDS011;198;48.752;9.180;2023-06-10T02:09:49;6.50;;;4.33;;
422;SDS011;198;48.752;9.180;2023-06-10T02:12:14;7.60;;;4.20;;
422;SDS011;198;48.752;9.180;2023-06-10T02:14:40;6.63;;;3.97;;
422;SDS011;198;48.752;9.180;2023-06-10T02:17:06;6.17;;;4.23;;
422;SDS011;198;48.752;9.180;2023-06-10T02:19:31;4.37;;;3.60;;
422;SDS011;198;48.752;9.180;2023-06-10T02:21:57;8.80;;;4.13;;
422;SDS011;198;48.752;9.180;2023-06-10T02:24:22;16.70;;;4.07;;
422;SDS011;198;48.752;9.180;2023-06-10T02:26:48;7.20;;;4.60;;
422;SDS011;198;48.752;9.180;2023-06-10T02:29:13;10.07;;;6.53;;
422;SDS011;198;48.752;9.180;2023-06-10T02:31:39;5.90;;;4.20;;
422;SDS011;198;48.752;9.180;2023-06-10T02:34:05;4.83;;;3.50;;
422;SDS011;198;48.752;9.180;2023-06-10T02:36:31;8.93;;;4.30;;
422;SDS011;198;48.752;9.180;2023-06-10T02:38:56;6.00;;;4.00;;
422;SDS011;198;48.752;9.180;2023-06-10T02:41:22;7.57;;;4.80;;
422;SDS011;198;48.752;9.180;2023-06-10T02:43:48;11.17;;;4.30;;
422;SDS011;198;48.752;9.180;2023-06-10T02:46:13;6.20;;;3.70;;
422;SDS011;198;48.752;9.180;2023-06-10T02:48:42;6.07;;;3.77;;
422;SDS011;198;48.752;9.180;2023-06-10T02:51:11;7.57;;;3.60;;
422;SDS011;198;48.752;9.180;2023-06-10T02:53:36;6.30;;;4.00;;
422;SDS011;198;48.752;9.180;2023-06-10T02:56:02;4.67;;;3.83;;
422;SDS011;198;48.752;9.180;2023-06-10T02:58:28;6.70;;;4.07;;
422;SDS011;198;48.752;9.180;2023-06-10T03:00:53;5.80;;;4.00;;
422;SDS011;198;48.752;9.180;2023-06-10T03:03:19;7.40;;;3.83;;
422;SDS011;198;48.752;9.180;2023-06-10T03:05:45;6.77;;;4.57;;
422;SDS011;198;48.752;9.180;2023-06-10T03:08:10;5.40;;;3.60;;
422;SDS011;198;48.752;9.180;2023-06-10T03:10:36;4.87;;;3.93;;
422;SDS011;198;48.752;9.180;2023-06-10T03:13:01;7.57;;;4.53;;
422;SDS011;198;48.752;9.180;2023-06-10T03:15:27;8.33;;;4.43;;
422;SDS011;198;48.752;9.180;2023-06-10T03:17:53;7.10;;;3.80;;
422;SDS011;198;48.752;9.180;2023-06-10T03:20:19;5.27;;;4.07;;
422;SDS011;198;48.752;9.180;2023-06-10T03:22:46;7.77;;;4.50;;
422;SDS011;198;48.752;9.180;2023-06-10T03:25:12;5.73;;;3.93;;
422;SDS011;198;48.752;9.180;2023-06-10T03:27:39;8.67;;;4.30;;
422;SDS011;198;48.752;9.180;2023-06-10T03:30:05;9.70;;;4.37;;
422;SDS011;198;48.752;9.180;2023-06-10T03:32:31;6.17;;;3.80;;
422;SDS011;198;48.752;9.180;2023-06-10T03:34:57;8.43;;;4.70;;
422;SDS011;198;48.752;9.180;2023-06-10T03:37:23;6.60;;;4.53;;
422;SDS011;198;48.752;9.180;2023-06-10T03:39:49;8.47;;;4.53;;
422;SDS011;198;48.752;9.180;2023-06-10T03:42:15;5.80;;;3.63;;
422;SDS011;198;48.752;9.180;2023-06-10T03:44:40;7.17;;;4.00;;
422;SDS011;198;48.752;9.180;2023-06-10T03:47:06;5.07;;;3.83;;
422;SDS011;198;48.752;9.180;2023-06-10T03:49:32;5.20;;;3.70;;
422;SDS011;198;48.752;9.180;2023-06-10T03:51:58;6.13;;;4.03;;
422;SDS011;198;48.752;9.180;2023-06-10T03:54:23;6.87;;;3.57;;
422;SDS011;198;48.752;9.180;2023-06-10T03:56:49;7.70;;;4.70;;
422;SDS011;198;48.752;9.180;2023-06-10T03:59:15;7.80;;;4.17;;
422;SDS011;198;48.752;9.180;2023-06-10T04:01:41;5.30;;;4.00;;
422;SDS011;198;48.752;9.180;2023-06-10T04:04:06;6.63;;;3.03;;
422;SDS011;198;48.752;9.180;2023-06-10T04:06:32;6.57;;;3.80;;
422;SDS011;198;48.752;9.180;2023-06-10T04:08:57;8.33;;;4.03;;
422;SDS011;198;48.752;9.180;2023-06-10T04:11:23;6.90;;;4.00;;
422;SDS011;198;48.752;9.180;2023-06-10T04:13:49;5.53;;;4.07;;
422;SDS011;198;48.752;9.180;2023-06-10T04:16:16;8.00;;;4.40;;
422;SDS011;198;48.752;9.180;2023-06-10T04:18:41;6.67;;;3.77;;
422;SDS011;198;48.752;9.180;2023-06-10T04:21:07;8.90;;;4.27;;
422;SDS011;198;48.752;9.180;2023-06-10T04:23:34;4.50;;;3.47;;
422;SDS011;198;48.752;9.180;2023-06-10T04:26:01;7.23;;;3.67;;
422;SDS011;198;48.752;9.180;2023-06-10T04:28:27;6.50;;;3.90;;
422;SDS011;198;48.752;9.180;2023-06-10T04:30:53;5.60;;;3.90;;
422;SDS011;198;48.752;9.180;2023-06-10T04:33:18;5.10;;;3.60;;
422;SDS011;198;48.752;9.180;2023-06-10T04:35:44;5.83;;;3.80;;
422;SDS011;198;48.752;9.180;2023-06-10T04:38:12;7.03;;;3.80;;
422;SDS011;198;48.752;9.180;2023-06-10T04:40:38;6.80;;;3.50;;
422;SDS011;198;48.752;9.180;2023-06-10T04:43:04;6.80;;;3.60;;
422;SDS011;198;48.752;9.180;2023-06-10T04:45:29;6.80;;;3.83;;
422;SDS011;198;48.752;9.180;2023-06-10T04:47:56;5.30;;;3.50;;
422;SDS011;198;48.752;9.180;2023-06-10T04:50:22;8.90;;;4.57;;
422;SDS011;198;48.752;9.180;2023-06-10T04:52:48;5.30;;;3.30;;
422;SDS011;198;48.752;9.180;2023-06-10T04:55:14;5.47;;;4.10;;
422;SDS011;198;48.752;9.180;2023-06-10T04:57:40;6.57;;;3.80;;
422;SDS011;198;48.752;9.180;2023-06-10T05:00:06;4.67;;;2.83;;
422;SDS011;198;48.752;9.180;2023-06-10T05:02:33;6.37;;;3.97;;
422;SDS011;198;48.752;9.180;2023-06-10T05:04:59;5.67;;;3.93;;
422;SDS011;198;48.752;9.180;2023-06-10T05:07:24;5.03;;;3.20;;
422;SDS011;198;48.752;9.180;2023-06-10T05:09:50;8.10;;;4.60;;
422;SDS011;198;48.752;9.180;2023-06-10T05:12:15;7.77;;;3.83;;
422;SDS011;198;48.752;9.180;2023-06-10T05:14:41;5.43;;;3.57;;
422;SDS011;198;48.752;9.180;2023-06-10T05:17:06;6.13;;;4.37;;
422;SDS011;198;48.752;9.180;2023-06-10T05:19:32;3.70;;;3.10;;
422;SDS011;198;48.752;9.180;2023-06-10T05:21:57;6.53;;;3.93;;
422;SDS011;198;48.752;9.180;2023-06-10T05:24:23;4.97;;;3.67;;
422;SDS011;198;48.752;9.180;2023-06-10T05:26:49;7.23;;;4.70;;
422;SDS011;198;48.752;9.180;2023-06-10T05:29:14;6.17;;;3.90;;
422;SDS011;198;48.752;9.180;2023-06-10T05:31:40;8.40;;;4.57;;
422;SDS011;198;48.752;9.180;2023-06-10T05:34:06;6.00;;;4.00;;
422;SDS011;198;48.752;9.180;2023-06-10T05:36:32;4.33;;;3.33;;
422;SDS011;198;48.752;9.180;2023-06-10T05:38:57;5.30;;;3.60;;
422;SDS011;198;48.752;9.180;2023-06-10T05:41:23;7.13;;;4.73;;
422;SDS011;198;48.752;9.180;2023-06-10T05:43:48;6.00;;;4.17;;
422;SDS011;198;48.752;9.180;2023-06-10T05:46:14;5.30;;;3.93;;
422;SDS011;198;48.752;9.180;2023-06-10T05:48:40;6.40;;;4.33;;
422;SDS011;198;48.752;9.180;2023-06-10T05:51:05;4.03;;;3.77;;
422;SDS011;198;48.752;9.180;2023-06-10T05:53:31;7.53;;;4.53;;
422;SDS011;198;48.752;9.180;2023-06-10T05:55:57;7.27;;;4.70;;
422;SDS011;198;48.752;9.180;2023-06-10T05:58:23;5.10;;;3.87;;
422;SDS011;198;48.752;9.180;2023-06-10T06:00:49;6.83;;;3.73;;
422;SDS011;198;48.752;9.180;2023-06-10T06:03:14;7.27;;;4.53;;
422;SDS011;198;48.752;9.180;2023-06-10T06:05:40;6.43;;;3.67;;
422;SDS011;198;48.752;9.180;2023-06-10T06:08:06;7.50;;;4.50;;
422;SDS011;198;48.752;9.180;2023-06-10T06:10:32;9.93;;;4.53;;
422;SDS011;198;48.752;9.180;2023-06-10T06:12:58;7.43;;;4.50;;
422;SDS011;198;48.752;9.180;2023-06-10T06:15:25;5.27;;;4.10;;
422;SDS011;198;48.752;9.180;2023-06-10T06:17:50;6.37;;;4.10;;
422;SDS011;198;48.752;9.180;2023-06-10T06:20:22;4.93;;;3.57;;
422;SDS011;198;48.752;9.180;2023-06-10T06:22:47;4.87;;;3.67;;
422;SDS011;198;48.752;9.180;2023-06-10T06:25:13;7.30;;;4.87;;
422;SDS011;198;48.752;9.180;2023-06-10T06:27:39;13.93;;;4.27;;
422;SDS011;198;48.752;9.180;2023-06-10T06:30:05;5.10;;;3.77;;
422;SDS011;198;48.752;9.180;2023-06-10T06:32:31;5.00;;;3.70;;
422;SDS011;198;48.752;9.180;2023-06-10T06:34:57;7.03;;;4.07;;
422;SDS011;198;48.752;9.180;2023-06-10T06:37:23;7.30;;;4.00;;
422;SDS011;198;48.752;9.180;2023-06-10T06:39:50;7.33;;;4.83;;
422;SDS011;198;48.752;9.180;2023-06-10T06:42:16;5.50;;;4.20;;
422;SDS011;198;48.752;9.180;2023-06-10T06:44:42;5.00;;;3.70;;
422;SDS011;198;48.752;9.180;2023-06-10T06:47:08;7.30;;;4.33;;
422;SDS011;198;48.752;9.180;2023-06-10T06:49:34;5.83;;;4.23;;
422;SDS011;198;48.752;9.180;2023-06-10T06:52:00;7.67;;;4.00;;
422;SDS011;198;48.752;9.180;2023-06-10T06:54:26;5.90;;;3.80;;
422;SDS011;198;48.752;9.180;2023-06-10T06:56:51;6.63;;;4.40;;
422;SDS011;198;48.752;9.180;2023-06-10T06:59:17;7.77;;;5.07;;
422;SDS011;198;48.752;9.180;2023-06-10T07:01:44;7.80;;;4.70;;
422;SDS011;198;48.752;9.180;2023-06-10T07:04:10;5.17;;;4.10;;
422;SDS011;198;48.752;9.180;2023-06-10T07:06:35;7.33;;;4.30;;
422;SDS011;198;48.752;9.180;2023-06-10T07:09:01;8.77;;;4.97;;
422;SDS011;198;48.752;9.180;2023-06-10T07:11:27;6.13;;;4.13;;
422;SDS011;198;48.752;9.180;2023-06-10T07:13:52;7.93;;;4.77;;
422;SDS011;198;48.752;9.180;2023-06-10T07:16:18;7.77;;;4.80;;
422;SDS011;198;48.752;9.180;2023-06-10T07:18:45;9.80;;;4.50;;
422;SDS011;198;48.752;9.180;2023-06-10T07:21:11;9.90;;;4.70;;
422;SDS011;198;48.752;9.180;2023-06-10T07:23:36;5.67;;;4.27;;
422;SDS011;198;48.752;9.180;2023-06-10T07:26:02;9.20;;;4.20;;
422;SDS011;198;48.752;9.180;2023-06-10T07:28:27;5.27;;;3.90;;
422;SDS011;198;48.752;9.180;2023-06-10T07:30:53;5.93;;;4.10;;
422;SDS011;198;48.752;9.180;2023-06-10T07:33:18;6.03;;;4.30;;
422;SDS011;198;48.752;9.180;2023-06-10T07:35:44;5.70;;;3.90;;
422;SDS011;198;48.752;9.180;2023-06-10T07:38:09;7.03;;;4.67;;
422;SDS011;198;48.752;9.180;2023-06-10T07:40:35;5.30;;;3.67;;
422;SDS011;198;48.752;9.180;2023-06-10T07:43:01;6.40;;;4.27;;
422;SDS011;198;48.752;9.180;2023-06-10T07:45:26;6.50;;;4.23;;
422;SDS011;198;48.752;9.180;2023-06-10T07:47:52;6.40;;;4.70;;
422;SDS011;198;48.752;9.180;2023-06-10T07:50:17;7.00;;;4.67;;
422;SDS011;198;48.752;9.180;2023-06-10T07:52:43;9.70;;;5.40;;
422;SDS011;198;48.752;9.180;2023-06-10T07:55:08;7.03;;;4.40;;
422;SDS011;198;48.752;9.180;2023-06-10T07:57:34;9.23;;;5.70;;
422;SDS011;198;48.752;9.180;2023-06-10T08:00:01;9.27;;;4.77;;
422;SDS011;198;48.752;9.180;2023-06-10T08:02:29;7.87;;;5.30;;
422;SDS011;198;48.752;9.180;2023-06-10T08:04:54;12.00;;;6.97;;
422;SDS011;198;48.752;9.180;2023-06-10T08:07:20;7.80;;;4.83;;
422;SDS011;198;48.752;9.180;2023-06-10T08:09:47;7.83;;;4.70;;
422;SDS011;198;48.752;9.180;2023-06-10T08:12:12;5.93;;;4.70;;
422;SDS011;198;48.752;9.180;2023-06-10T08:14:38;10.57;;;5.73;;
422;SDS011;198;48.752;9.180;2023-06-10T08:17:03;5.80;;;4.27;;
422;SDS011;198;48.752;9.180;2023-06-10T08:19:30;7.37;;;4.83;;
422;SDS011;198;48.752;9.180;2023-06-10T08:21:56;11.73;;;5.47;;
422;SDS011;198;48.752;9.180;2023-06-10T08:24:22;8.60;;;4.90;;
422;SDS011;198;48.752;9.180;2023-06-10T08:26:47;7.00;;;4.40;;
422;SDS011;198;48.752;9.180;2023-06-10T08:29:13;8.43;;;5.20;;
422;SDS011;198;48.752;9.180;2023-06-10T08:31:42;8.70;;;5.57;;
422;SDS011;198;48.752;9.180;2023-06-10T08:34:08;7.70;;;4.93;;
422;SDS011;198;48.752;9.180;2023-06-10T08:36:34;7.40;;;4.87;;
422;SDS011;198;48.752;9.180;2023-06-10T08:39:00;7.77;;;5.40;;
422;SDS011;198;48.752;9.180;2023-06-10T08:41:26;5.40;;;3.93;;
422;SDS011;198;48.752;9.180;2023-06-10T08:44:13;6.20;;;4.60;;
422;SDS011;198;48.752;9.180;2023-06-10T08:46:45;6.97;;;4.37;;
422;SDS011;198;48.752;9.180;2023-06-10T08:49:11;5.83;;;4.40;;
422;SDS011;198;48.752;9.180;2023-06-10T08:51:42;7.27;;;4.90;;
422;SDS011;198;48.752;9.180;2023-06-10T08:54:18;8.40;;;4.67;;
422;SDS011;198;48.752;9.180;2023-06-10T08:56:48;9.07;;;5.00;;
422;SDS011;198;48.752;9.180;2023-06-10T08:59:18;4.43;;;3.60;;
422;SDS011;198;48.752;9.180;2023-06-10T09:01:44;4.60;;;3.80;;
422;SDS011;198;48.752;9.180;2023-06-10T09:04:11;8.50;;;4.57;;
422;SDS011;198;48.752;9.180;2023-06-10T09:06:38;6.90;;;4.23;;
422;SDS011;198;48.752;9.180;2023-06-10T09:09:05;9.73;;;4.03;;
422;SDS011;198;48.752;9.180;2023-06-10T09:11:32;6.87;;;4.83;;
422;SDS011;198;48.752;9.180;2023-06-10T09:13:59;7.47;;;4.87;;
422;SDS011;198;48.752;9.180;2023-06-10T09:16:24;4.53;;;3.63;;
422;SDS011;198;48.752;9.180;2023-06-10T09:18:50;5.97;;;3.70;;
422;SDS011;198;48.752;9.180;2023-06-10T09:21:21;6.27;;;4.00;;
422;SDS011;198;48.752;9.180;2023-06-10T09:23:48;9.13;;;4.77;;
422;SDS011;198;48.752;9.180;2023-06-10T09:26:13;4.43;;;3.90;;
422;SDS011;198;48.752;9.180;2023-06-10T09:28:39;6.57;;;4.13;;
422;SDS011;198;48.752;9.180;2023-06-10T09:31:08;5.80;;;3.77;;
422;SDS011;198;48.752;9.180;2023-06-10T09:33:38;6.40;;;3.97;;
422;SDS011;198;48.752;9.180;2023-06-10T09:36:04;4.77;;;3.50;;
422;SDS011;198;48.752;9.180;2023-06-10T09:38:30;6.43;;;4.10;;
422;SDS011;198;48.752;9.180;2023-06-10T09:40:57;5.20;;;3.60;;
422;SDS011;198;48.752;9.180;2023-06-10T09:43:23;3.90;;;3.33;;
422;SDS011;198;48.752;9.180;2023-06-10T09:46:02;4.73;;;4.20;;
422;SDS011;198;48.752;9.180;2023-06-10T09:48:28;4.77;;;3.10;;
422;SDS011;198;48.752;9.180;2023-06-10T09:50:53;7.40;;;4.20;;
422;SDS011;198;48.752;9.180;2023-06-10T09:53:20;4.70;;;3.97;;
422;SDS011;198;48.752;9.180;2023-06-10T09:55:45;5.23;;;3.17;;
422;SDS011;198;48.752;9.180;2023-06-10T09:58:11;3.97;;;3.40;;
422;SDS011;198;48.752;9.180;2023-06-10T10:00:36;4.93;;;3.40;;
422;SDS011;198;48.752;9.180;2023-06-10T10:03:02;4.27;;;3.07;;
422;SDS011;198;48.752;9.180;2023-06-10T10:05:28;3.63;;;3.13;;
422;SDS011;198;48.752;9.180;2023-06-10T10:07:54;5.73;;;2.77;;
422;SDS011;198;48.752;9.180;2023-06-10T10:10:21;4.30;;;3.63;;
422;SDS011;198;48.752;9.180;2023-06-10T10:12:48;4.20;;;2.83;;
422;SDS011;198;48.752;9.180;2023-06-10T10:15:15;3.43;;;2.57;;
422;SDS011;198;48.752;9.180;2023-06-10T10:17:48;2.47;;;2.30;;
422;SDS011;198;48.752;9.180;2023-06-10T10:20:18;6.10;;;3.50;;
422;SDS011;198;48.752;9.180;2023-06-10T10:22:47;3.40;;;2.93;;
422;SDS011;198;48.752;9.180;2023-06-10T10:25:16;4.57;;;3.50;;
422;SDS011;198;48.752;9.180;2023-06-10T10:27:48;2.97;;;2.20;;
422;SDS011;198;48.752;9.180;2023-06-10T10:30:16;2.93;;;2.80;;
422;SDS011;198;48.752;9.180;2023-06-10T10:35:24;3.70;;;3.13;;
422;SDS011;198;48.752;9.180;2023-06-10T10:37:52;4.67;;;2.67;;
422;SDS011;198;48.752;9.180;2023-06-10T10:40:19;3.73;;;2.90;;
422;SDS011;198;48.752;9.180;2023-06-10T10:42:49;3.77;;;3.07;;
422;SDS011;198;48.752;9.180;2023-06-10T10:45:15;5.23;;;2.87;;
422;SDS011;198;48.752;9.180;2023-06-10T10:47:42;3.10;;;2.50;;
422;SDS011;198;48.752;9.180;2023-06-10T10:50:16;4.43;;;2.37;;
422;SDS011;198;48.752;9.180;2023-06-10T10:52:46;3.10;;;2.60;;
422;SDS011;198;48.752;9.180;2023-06-10T10:55:18;3.40;;;2.50;;
422;SDS011;198;48.752;9.180;2023-06-10T10:57:43;3.13;;;2.93;;
422;SDS011;198;48.752;9.180;2023-06-10T11:00:09;2.57;;;2.40;;
422;SDS011;198;48.752;9.180;2023-06-10T11:02:36;2.67;;;2.40;;
422;SDS011;198;48.752;9.180;2023-06-10T11:05:04;2.60;;;2.40;;
422;SDS011;198;48.752;9.180;2023-06-10T11:07:32;3.27;;;2.40;;
422;SDS011;198;48.752;9.180;2023-06-10T11:10:02;3.33;;;2.47;;
422;SDS011;198;48.752;9.180;2023-06-10T11:12:51;3.33;;;2.70;;
422;SDS011;198;48.752;9.180;2023-06-10T11:15:21;3.23;;;2.83;;
422;SDS011;198;48.752;9.180;2023-06-10T11:31:20;2.42;;;2.00;;
422;SDS011;198;48.752;9.180;2023-06-10T11:33:54;2.00;;;1.90;;
422;SDS011;198;48.752;9.180;2023-06-10T11:36:20;2.63;;;2.38;;
422;SDS011;198;48.752;9.180;2023-06-10T11:38:46;2.65;;;2.45;;
422;SDS011;198;48.752;9.180;2023-06-10T11:41:11;2.70;;;2.25;;
422;SDS011;198;48.752;9.180;2023-06-10T11:43:44;2.40;;;2.20;;
422;SDS011;198;48.752;9.180;2023-06-10T11:46:10;4.10;;;2.50;;
422;SDS011;198;48.752;9.180;2023-06-10T11:48:37;2.70;;;2.60;;
422;SDS011;198;48.752;9.180;2023-06-10T11:51:08;2.57;;;2.37;;
422;SDS011;198;48.752;9.180;2023-06-10T11:53:34;3.17;;;2.70;;
422;SDS011;198;48.752;9.180;2023-06-10T11:56:00;3.03;;;2.70;;
422;SDS011;198;48.752;9.180;2023-06-10T11:58:25;6.13;;;2.90;;
422;SDS011;198;48.752;9.180;2023-06-10T12:00:52;2.40;;;1.92;;
422;SDS011;198;48.752;9.180;2023-06-10T12:03:18;2.60;;;2.40;;
422;SDS011;198;48.752;9.180;2023-06-10T12:05:58;2.10;;;1.95;;
422;SDS011;198;48.752;9.180;2023-06-10T12:08:24;3.03;;;2.15;;
422;SDS011;198;48.752;9.180;2023-06-10T12:10:51;2.83;;;2.17;;
422;SDS011;198;48.752;9.180;2023-06-10T12:13:16;1.95;;;1.88;;
422;SDS011;198;48.752;9.180;2023-06-10T12:15:45;1.90;;;1.80;;
422;SDS011;198;48.752;9.180;2023-06-10T12:20:43;2.38;;;2.17;;
422;SDS011;198;48.752;9.180;2023-06-10T12:23:10;3.17;;;1.92;;
422;SDS011;198;48.752;9.180;2023-06-10T12:25:36;4.88;;;2.03;;
422;SDS011;198;48.752;9.180;2023-06-10T12:28:03;2.45;;;2.33;;
422;SDS011;198;48.752;9.180;2023-06-10T12:30:29;1.90;;;1.80;;
422;SDS011;198;48.752;9.180;2023-06-10T12:32:54;2.22;;;2.03;;
422;SDS011;198;48.752;9.180;2023-06-10T12:35:22;2.40;;;2.20;;
422;SDS011;198;48.752;9.180;2023-06-10T12:37:58;2.15;;;1.77;;
422;SDS011;198;48.752;9.180;2023-06-10T12:40:30;3.80;;;2.10;;
422;SDS011;198;48.752;9.180;2023-06-10T12:42:56;2.75;;;2.58;;
422;SDS011;198;48.752;9.180;2023-06-10T12:45:26;6.00;;;2.60;;
422;SDS011;198;48.752;9.180;2023-06-10T12:48:18;4.50;;;3.08;;
422;SDS011;198;48.752;9.180;2023-06-10T12:50:49;2.60;;;2.42;;
422;SDS011;198;48.752;9.180;2023-06-10T12:53:19;2.65;;;2.38;;
422;SDS011;198;48.752;9.180;2023-06-10T12:55:46;2.75;;;2.58;;
422;SDS011;198;48.752;9.180;2023-06-10T12:58:12;2.35;;;2.22;;
422;SDS011;198;48.752;9.180;2023-06-10T13:00:38;4.30;;;3.03;;
422;SDS011;198;48.752;9.180;2023-06-10T13:03:04;4.82;;;2.25;;
422;SDS011;198;48.752;9.180;2023-06-10T13:05:33;3.25;;;2.92;;
422;SDS011;198;48.752;9.180;2023-06-10T13:08:02;4.80;;;2.33;;
422;SDS011;198;48.752;9.180;2023-06-10T13:10:28;2.20;;;2.00;;
422;SDS011;198;48.752;9.180;2023-06-10T13:12:53;4.47;;;2.35;;
422;SDS011;198;48.752;9.180;2023-06-10T13:15:21;5.93;;;2.60;;
422;SDS011;198;48.752;9.180;2023-06-10T13:17:47;2.58;;;2.38;;
422;SDS011;198;48.752;9.180;2023-06-10T13:20:14;2.05;;;1.95;;
422;SDS011;198;48.752;9.180;2023-06-10T13:22:41;1.92;;;1.83;;
422;SDS011;198;48.752;9.180;2023-06-10T13:25:06;1.63;;;1.52;;
422;SDS011;198;48.752;9.180;2023-06-10T13:27:33;2.28;;;2.08;;
422;SDS011;198;48.752;9.180;2023-06-10T13:29:59;2.58;;;2.10;;
422;SDS011;198;48.752;9.180;2023-06-10T13:32:25;1.73;;;1.63;;
422;SDS011;198;48.752;9.180;2023-06-10T13:34:50;4.35;;;2.33;;
422;SDS011;198;48.752;9.180;2023-06-10T13:37:16;2.20;;;2.00;;
422;SDS011;198;48.752;9.180;2023-06-10T13:39:43;2.17;;;1.98;;
422;SDS011;198;48.752;9.180;2023-06-10T13:42:08;1.63;;;1.52;;
422;SDS011;198;48.752;9.180;2023-06-10T13:44:34;1.63;;;1.52;;
422;SDS011;198;48.752;9.180;2023-06-10T13:47:01;1.42;;;1.33;;
422;SDS011;198;48.752;9.180;2023-06-10T13:49:27;3.30;;;2.47;;
422;SDS011;198;48.752;9.180;2023-06-10T13:51:53;1.80;;;1.70;;
422;SDS011;198;48.752;9.180;2023-06-10T13:54:19;2.03;;;1.80;;
422;SDS011;198;48.752;9.180;2023-06-10T13:56:44;2.42;;;2.22;;
422;SDS011;198;48.752;9.180;2023-06-10T13:59:10;2.42;;;2.25;;
422;SDS011;198;48.752;9.180;2023-06-10T14:01:36;2.15;;;1.98;;
422;SDS011;198;48.752;9.180;2023-06-10T14:04:02;3.00;;;2.10;;
422;SDS011;198;48.752;9.180;2023-06-10T14:06:28;2.40;;;2.20;;
422;SDS011;198;48.752;9.180;2023-06-10T14:08:53;1.98;;;1.88;;
422;SDS011;198;48.752;9.180;2023-06-10T14:11:22;1.90;;;1.77;;
422;SDS011;198;48.752;9.180;2023-06-10T14:13:48;2.42;;;2.22;;
422;SDS011;198;48.752;9.180;2023-06-10T14:16:13;1.63;;;1.52;;
422;SDS011;198;48.752;9.180;2023-06-10T14:18:38;2.38;;;2.20;;
422;SDS011;198;48.752;9.180;2023-06-10T14:21:04;2.10;;;1.95;;
422;SDS011;198;48.752;9.180;2023-06-10T14:23:30;1.88;;;1.60;;
422;SDS011;198;48.752;9.180;2023-06-10T14:25:55;3.85;;;1.83;;
422;SDS011;198;48.752;9.180;2023-06-10T14:28:21;2.15;;;1.98;;
422;SDS011;198;48.752;9.180;2023-06-10T14:30:46;1.58;;;1.48;;
422;SDS011;198;48.752;9.180;2023-06-10T14:33:12;1.85;;;1.77;;
422;SDS011;198;48.752;9.180;2023-06-10T14:35:37;2.05;;;1.92;;
422;SDS011;198;48.752;9.180;2023-06-10T14:38:03;6.72;;;1.77;;
422;SDS011;198;48.752;9.180;2023-06-10T14:40:29;1.92;;;1.70;;
422;SDS011;198;48.752;9.180;2023-06-10T14:42:54;2.53;;;2.33;;
422;SDS011;198;48.752;9.180;2023-06-10T14:45:20;1.50;;;1.45;;
422;SDS011;198;48.752;9.180;2023-06-10T14:47:45;1.90;;;1.80;;
422;SDS011;198;48.752;9.180;2023-06-10T14:50:12;1.77;;;1.67;;
422;SDS011;198;48.752;9.180;2023-06-10T14:52:37;2.55;;;1.90;;
422;SDS011;198;48.752;9.180;2023-06-10T14:55:03;1.70;;;1.60;;
422;SDS011;198;48.752;9.180;2023-06-10T14:57:29;2.20;;;2.00;;
422;SDS011;198;48.752;9.180;2023-06-10T14:59:54;4.95;;;2.25;;
422;SDS011;198;48.752;9.180;2023-06-10T15:02:21;2.42;;;2.22;;
422;SDS011;198;48.752;9.180;2023-06-10T15:04:47;2.80;;;2.60;;
422;SDS011;198;48.752;9.180;2023-06-10T15:07:12;7.68;;;1.90;;
422;SDS011;198;48.752;9.180;2023-06-10T15:09:40;2.65;;;2.35;;
422;SDS011;198;48.752;9.180;2023-06-10T15:12:06;4.18;;;2.97;;
422;SDS011;198;48.752;9.180;2023-06-10T15:14:32;2.30;;;2.10;;
422;SDS011;198;48.752;9.180;2023-06-10T15:16:58;5.22;;;2.72;;
422;SDS011;198;48.752;9.180;2023-06-10T15:19:24;1.95;;;1.85;;
422;SDS011;198;48.752;9.180;2023-06-10T15:21:51;2.28;;;2.08;;
422;SDS011;198;48.752;9.180;2023-06-10T15:24:16;4.22;;;2.50;;
422;SDS011;198;48.752;9.180;2023-06-10T15:26:42;2.20;;;2.00;;
422;SDS011;198;48.752;9.180;2023-06-10T15:29:07;1.85;;;1.75;;
422;SDS011;198;48.752;9.180;2023-06-10T15:31:34;2.10;;;1.95;;
422;SDS011;198;48.752;9.180;2023-06-10T15:34:00;2.22;;;2.03;;
422;SDS011;198;48.752;9.180;2023-06-10T15:36:26;2.78;;;2.58;;
422;SDS011;198;48.752;9.180;2023-06-10T15:38:52;2.53;;;2.20;;
422;SDS011;198;48.752;9.180;2023-06-10T15:41:18;7.45;;;4.75;;
422;SDS011;198;48.752;9.180;2023-06-10T15:43:44;3.72;;;3.28;;
422;SDS011;198;48.752;9.180;2023-06-10T15:46:10;4.25;;;3.40;;
422;SDS011;198;48.752;9.180;2023-06-10T15:48:36;2.30;;;2.10;;
422;SDS011;198;48.752;9.180;2023-06-10T15:51:01;3.63;;;3.17;;
422;SDS011;198;48.752;9.180;2023-06-10T15:53:27;3.88;;;2.38;;
422;SDS011;198;48.752;9.180;2023-06-10T15:55:52;2.72;;;2.58;;
422;SDS011;198;48.752;9.180;2023-06-10T15:58:18;2.53;;;2.33;;
422;SDS011;198;48.752;9.180;2023-06-10T16:00:43;3.55;;;3.38;;
422;SDS011;198;48.752;9.180;2023-06-10T16:03:09;2.50;;;2.28;;